createdAt,value
2023-01-22T00:02:22.926Z,2.52
2023-01-22T00:04:55.040Z,2.54
2023-01-22T00:07:27.082Z,2.49
2023-01-22T00:10:00.246Z,2.45
2023-01-22T00:12:32.454Z,2.31
2023-01-22T00:15:05.181Z,2.34
2023-01-22T00:17:38.054Z,2.37
2023-01-22T00:20:12.533Z,2.25
2023-01-22T00:22:44.605Z,2.26
2023-01-22T00:25:16.688Z,2.25
2023-01-22T00:27:48.641Z,2.30
2023-01-22T00:30:26.680Z,2.37
2023-01-22T00:32:58.873Z,2.41
2023-01-22T00:35:31.255Z,2.48
2023-01-22T00:38:04.001Z,2.53
2023-01-22T00:40:36.197Z,2.56
2023-01-22T00:43:08.175Z,2.59
2023-01-22T00:45:40.224Z,2.65
2023-01-22T00:48:12.279Z,2.63
2023-01-22T00:50:44.346Z,2.58
2023-01-22T00:53:16.510Z,2.62
2023-01-22T00:55:58.713Z,2.64
2023-01-22T00:58:31.073Z,2.62
2023-01-22T01:01:04.677Z,2.65
2023-01-22T01:03:37.802Z,2.68
2023-01-22T01:06:31.712Z,2.75
2023-01-22T01:09:05.459Z,2.80
2023-01-22T01:12:03.749Z,2.75
2023-01-22T01:14:36.355Z,2.80
2023-01-22T01:17:08.403Z,2.84
2023-01-22T01:19:40.559Z,2.81
2023-01-22T01:22:12.745Z,2.80
2023-01-22T01:24:45.172Z,2.83
2023-01-22T01:27:18.093Z,2.76
2023-01-22T01:29:55.718Z,2.77
2023-01-22T01:32:28.787Z,2.83
2023-01-22T01:35:00.887Z,2.80
2023-01-22T01:37:36.221Z,2.88
2023-01-22T01:40:09.849Z,2.88
2023-01-22T01:42:46.810Z,2.86
2023-01-22T01:45:32.719Z,2.92
2023-01-22T01:48:38.531Z,2.89
2023-01-22T01:51:22.309Z,2.89
2023-01-22T01:53:55.258Z,2.88
2023-01-22T01:56:33.406Z,2.88
2023-01-22T01:59:12.080Z,2.90
2023-01-22T02:01:50.193Z,2.85
2023-01-22T02:04:24.179Z,2.83
2023-01-22T02:06:56.197Z,2.83
2023-01-22T02:09:28.211Z,2.70
2023-01-22T02:12:00.555Z,2.58
2023-01-22T02:14:37.712Z,2.59
2023-01-22T02:17:17.033Z,2.63
2023-01-22T02:19:49.137Z,2.67
2023-01-22T02:22:31.606Z,2.66
2023-01-22T02:25:04.279Z,2.65
2023-01-22T02:27:36.758Z,2.61
2023-01-22T02:30:17.120Z,2.68
2023-01-22T02:32:51.803Z,2.65
2023-01-22T02:35:27.801Z,2.55
2023-01-22T02:38:13.243Z,2.59
2023-01-22T02:40:49.510Z,2.54
2023-01-22T02:43:21.959Z,2.42
2023-01-22T02:45:54.892Z,2.47
2023-01-22T02:48:26.859Z,2.49
2023-01-22T02:50:58.939Z,2.52
2023-01-22T02:53:31.443Z,2.57
2023-01-22T02:56:11.461Z,2.61
2023-01-22T02:58:43.517Z,2.62
2023-01-22T03:01:25.263Z,2.58
2023-01-22T03:04:02.067Z,2.42
2023-01-22T03:06:34.054Z,2.45
2023-01-22T03:09:06.991Z,2.48
2023-01-22T03:11:41.843Z,2.57
2023-01-22T03:14:33.435Z,2.58
2023-01-22T03:17:26.548Z,2.43
2023-01-22T03:20:18.366Z,2.19
2023-01-22T03:22:50.600Z,2.20
2023-01-22T03:25:22.665Z,2.32
2023-01-22T03:28:16.489Z,2.38
2023-01-22T03:30:48.889Z,2.44
2023-01-22T03:33:20.880Z,2.40
2023-01-22T03:35:52.892Z,2.48
2023-01-22T03:38:25.001Z,2.36
2023-01-22T03:41:13.826Z,2.31
2023-01-22T03:43:46.988Z,2.34
2023-01-22T03:46:20.360Z,2.39
2023-01-22T03:48:53.159Z,2.39
2023-01-22T03:51:25.319Z,2.35
2023-01-22T03:53:59.184Z,2.39
2023-01-22T03:56:32.162Z,2.42
2023-01-22T03:59:07.776Z,2.50
2023-01-22T04:01:40.870Z,2.50
2023-01-22T04:04:12.931Z,2.38
2023-01-22T04:06:44.897Z,2.38
2023-01-22T04:09:16.955Z,2.44
2023-01-22T04:11:48.999Z,2.45
2023-01-22T04:14:20.990Z,2.42
2023-01-22T04:16:53.024Z,2.31
2023-01-22T04:19:27.149Z,2.35
2023-01-22T04:22:00.530Z,2.23
2023-01-22T04:24:32.509Z,2.31
2023-01-22T04:27:04.557Z,2.33
2023-01-22T04:29:44.080Z,2.31
2023-01-22T04:32:16.134Z,2.34
2023-01-22T04:34:48.335Z,2.30
2023-01-22T04:37:20.349Z,2.34
2023-01-22T04:39:52.371Z,2.45
2023-01-22T04:42:24.378Z,2.49
2023-01-22T04:44:56.547Z,2.38
2023-01-22T04:47:28.769Z,2.45
2023-01-22T04:50:00.933Z,2.51
2023-01-22T04:52:32.983Z,2.53
2023-01-22T04:55:06.122Z,2.47
2023-01-22T04:57:38.889Z,2.44
2023-01-22T05:00:12.829Z,2.52
2023-01-22T05:02:44.844Z,2.45
2023-01-22T05:05:26.400Z,2.48
2023-01-22T05:07:59.584Z,2.43
2023-01-22T05:10:31.825Z,2.49
2023-01-22T05:13:06.658Z,2.47
2023-01-22T05:15:39.008Z,2.58
2023-01-22T05:18:11.011Z,2.60
2023-01-22T05:20:43.046Z,2.62
2023-01-22T05:23:15.000Z,2.55
2023-01-22T05:25:50.560Z,2.65
2023-01-22T05:28:22.565Z,2.61
2023-01-22T05:30:54.679Z,2.61
2023-01-22T05:33:30.153Z,2.57
2023-01-22T05:36:03.687Z,2.58
2023-01-22T05:38:35.650Z,2.60
2023-01-22T05:41:07.628Z,2.58
2023-01-22T05:43:50.071Z,2.59
2023-01-22T05:46:28.217Z,2.66
2023-01-22T05:49:00.223Z,2.66
2023-01-22T05:51:32.612Z,2.62
2023-01-22T05:54:32.088Z,2.63
2023-01-22T05:57:06.087Z,2.57
2023-01-22T05:59:40.880Z,2.59
2023-01-22T06:02:12.924Z,2.54
2023-01-22T06:04:44.952Z,2.58
2023-01-22T06:07:16.911Z,2.55
2023-01-22T06:09:48.997Z,2.53
2023-01-22T06:12:21.022Z,2.52
2023-01-22T06:14:55.689Z,2.57
2023-01-22T06:17:27.647Z,2.58
2023-01-22T06:19:59.802Z,2.50
2023-01-22T06:22:31.847Z,2.33
2023-01-22T06:25:04.320Z,2.38
2023-01-22T06:27:36.309Z,2.47
2023-01-22T06:30:09.406Z,2.44
2023-01-22T06:32:41.393Z,2.46
2023-01-22T06:35:13.857Z,2.45
2023-01-22T06:37:45.963Z,2.51
2023-01-22T06:40:20.401Z,2.51
2023-01-22T06:42:52.628Z,2.54
2023-01-22T06:45:25.002Z,2.40
2023-01-22T06:47:58.211Z,2.49
2023-01-22T06:50:30.334Z,2.57
2023-01-22T06:53:02.300Z,2.60
2023-01-22T06:55:34.658Z,2.58
2023-01-22T06:58:16.778Z,2.56
2023-01-22T07:00:48.845Z,2.49
2023-01-22T07:03:22.918Z,2.51
2023-01-22T07:06:00.528Z,2.54
2023-01-22T07:08:33.897Z,2.53
2023-01-22T07:11:07.881Z,2.54
2023-01-22T07:13:40.128Z,2.47
2023-01-22T07:16:12.904Z,2.55
2023-01-22T07:18:45.030Z,2.59
2023-01-22T07:21:17.084Z,2.58
2023-01-22T07:23:49.194Z,2.67
2023-01-22T07:26:21.318Z,2.75
2023-01-22T07:28:53.489Z,2.77
2023-01-22T07:31:25.665Z,2.79
2023-01-22T07:34:01.641Z,2.64
2023-01-22T07:36:33.697Z,2.70
2023-01-22T07:39:16.626Z,2.75
2023-01-22T07:41:48.686Z,2.68
2023-01-22T07:44:29.233Z,2.60
2023-01-22T07:47:01.216Z,2.64
2023-01-22T07:49:33.160Z,2.53
2023-01-22T07:52:05.333Z,2.52
2023-01-22T07:54:37.313Z,2.65
2023-01-22T07:57:14.506Z,2.68
2023-01-22T07:59:46.577Z,2.61
2023-01-22T08:02:19.031Z,2.73
2023-01-22T08:04:51.042Z,2.70
2023-01-22T08:07:23.540Z,2.74
2023-01-22T08:09:55.686Z,2.68
2023-01-22T08:12:27.685Z,2.73
2023-01-22T08:14:59.659Z,2.67
2023-01-22T08:17:31.642Z,2.60
2023-01-22T08:20:04.971Z,2.70
2023-01-22T08:22:37.064Z,2.61
2023-01-22T08:25:09.939Z,2.62
2023-01-22T08:27:42.117Z,2.61
2023-01-22T08:30:16.155Z,2.65
2023-01-22T08:32:56.661Z,2.67
2023-01-22T08:35:29.907Z,2.63
2023-01-22T08:38:02.098Z,2.73
2023-01-22T08:40:35.644Z,2.79
2023-01-22T08:43:09.287Z,2.84
2023-01-22T08:45:41.716Z,2.82
2023-01-22T08:48:13.756Z,2.80
2023-01-22T08:50:46.097Z,2.86
2023-01-22T08:53:30.797Z,2.88
2023-01-22T08:56:02.889Z,2.81
2023-01-22T08:58:34.926Z,2.86
2023-01-22T09:01:07.172Z,2.98
2023-01-22T09:03:39.478Z,2.97
2023-01-22T09:06:12.268Z,2.96
2023-01-22T09:08:44.498Z,2.96
2023-01-22T09:11:17.168Z,2.94
2023-01-22T09:13:49.172Z,2.96
2023-01-22T09:16:21.670Z,2.95
2023-01-22T09:21:42.184Z,2.99
2023-01-22T09:24:14.429Z,3.00
2023-01-22T09:26:46.584Z,3.03
2023-01-22T09:29:18.548Z,3.11
2023-01-22T09:31:51.423Z,3.06
2023-01-22T09:34:23.599Z,3.09
2023-01-22T09:36:55.655Z,3.14
2023-01-22T09:39:27.635Z,3.24
2023-01-22T09:42:02.659Z,3.30
2023-01-22T09:44:39.594Z,3.22
2023-01-22T09:47:17.673Z,3.27
2023-01-22T09:50:27.982Z,3.38
2023-01-22T09:53:06.431Z,3.57
2023-01-22T09:58:52.046Z,3.65
2023-01-22T10:01:24.917Z,3.50
2023-01-22T10:04:04.043Z,3.48
2023-01-22T10:06:36.434Z,3.58
2023-01-22T10:09:08.304Z,3.70
2023-01-22T10:11:41.143Z,3.77
2023-01-22T10:14:18.118Z,3.85
2023-01-22T10:16:50.403Z,3.85
2023-01-22T10:19:32.949Z,3.92
2023-01-22T10:22:21.433Z,3.93
2023-01-22T10:24:54.285Z,4.06
2023-01-22T10:27:41.013Z,4.05
2023-01-22T10:30:24.023Z,4.11
2023-01-22T10:33:07.175Z,4.18
2023-01-22T10:35:46.540Z,4.06
2023-01-22T10:38:30.759Z,4.01
2023-01-22T10:41:04.569Z,3.93
2023-01-22T10:43:39.185Z,3.95
2023-01-22T10:46:24.570Z,3.95
2023-01-22T10:49:03.836Z,4.04
2023-01-22T10:51:40.483Z,4.10
2023-01-22T10:54:54.650Z,4.12
2023-01-22T10:57:43.988Z,4.09
2023-01-22T11:00:37.084Z,4.18
2023-01-22T11:03:34.922Z,4.29
2023-01-22T11:06:15.708Z,4.42
2023-01-22T11:09:08.708Z,4.49
2023-01-22T11:11:59.205Z,4.49
2023-01-22T11:14:36.923Z,4.62
2023-01-22T11:17:27.765Z,4.68
2023-01-22T11:20:32.864Z,4.66
2023-01-22T11:24:02.016Z,4.64
2023-01-22T11:27:24.467Z,4.62
2023-01-22T11:30:09.070Z,4.72
2023-01-22T11:32:50.048Z,4.79
2023-01-22T11:36:36.567Z,4.82
2023-01-22T11:39:38.544Z,4.82
2023-01-22T11:42:27.810Z,4.82
2023-01-22T11:46:11.286Z,4.90
2023-01-22T11:49:07.607Z,4.97
2023-01-22T11:52:32.099Z,5.16
2023-01-22T11:55:22.561Z,5.14
2023-01-22T11:58:12.398Z,5.06
2023-01-22T12:01:45.159Z,5.14
2023-01-22T12:05:31.012Z,5.16
2023-01-22T12:08:54.729Z,5.22
2023-01-22T12:11:51.248Z,5.22
2023-01-22T12:14:47.691Z,5.21
2023-01-22T12:17:57.723Z,5.31
2023-01-22T12:20:59.989Z,5.12
2023-01-22T12:23:51.426Z,5.08
2023-01-22T12:26:30.047Z,5.12
2023-01-22T12:29:37.207Z,5.16
2023-01-22T12:32:15.430Z,5.10
2023-01-22T12:35:01.568Z,5.09
2023-01-22T12:37:48.298Z,5.16
2023-01-22T12:41:08.324Z,5.35
2023-01-22T12:44:55.059Z,5.38
2023-01-22T12:48:35.198Z,5.49
2023-01-22T12:51:47.732Z,5.62
2023-01-22T12:54:29.945Z,5.70
2023-01-22T12:57:17.555Z,5.75
2023-01-22T12:59:56.885Z,5.65
2023-01-22T13:02:35.751Z,5.56
2023-01-22T13:05:19.352Z,5.55
2023-01-22T13:08:08.135Z,5.44
2023-01-22T13:10:40.239Z,5.37
2023-01-22T13:13:40.173Z,5.25
2023-01-22T13:16:35.006Z,5.12
2023-01-22T13:19:24.048Z,5.01
2023-01-22T13:22:00.882Z,4.89
2023-01-22T13:24:33.350Z,4.93
2023-01-22T13:27:05.562Z,4.93
2023-01-22T13:29:39.471Z,4.95
2023-01-22T13:32:23.269Z,4.83
2023-01-22T13:35:06.739Z,4.90
2023-01-22T13:37:41.480Z,4.72
2023-01-22T13:40:23.234Z,4.77
2023-01-22T13:42:56.768Z,4.78
2023-01-22T13:46:04.406Z,4.74
2023-01-22T13:48:36.371Z,4.64
2023-01-22T13:51:18.631Z,4.65
2023-01-22T13:53:54.679Z,4.72
2023-01-22T13:56:28.033Z,4.66
2023-01-22T13:59:18.834Z,4.64
2023-01-22T14:01:52.327Z,4.64
2023-01-22T14:04:37.429Z,4.67
2023-01-22T14:07:20.717Z,4.72
2023-01-22T14:09:54.417Z,4.63
2023-01-22T14:12:27.508Z,4.45
2023-01-22T14:14:59.638Z,4.54
2023-01-22T14:17:37.244Z,4.61
2023-01-22T14:20:10.477Z,4.59
2023-01-22T14:22:42.525Z,4.58
2023-01-22T14:25:14.916Z,4.64
2023-01-22T14:27:50.770Z,4.62
2023-01-22T14:30:22.904Z,4.57
2023-01-22T14:32:54.983Z,4.59
2023-01-22T14:35:30.323Z,4.60
2023-01-22T14:38:02.436Z,4.53
2023-01-22T14:40:35.043Z,4.48
2023-01-22T14:43:07.203Z,4.52
2023-01-22T14:45:56.368Z,4.60
2023-01-22T14:48:28.517Z,4.57
2023-01-22T14:51:00.618Z,4.58
2023-01-22T14:53:39.647Z,4.59
2023-01-22T14:56:11.734Z,4.63
2023-01-22T14:58:43.780Z,4.64
2023-01-22T15:01:19.903Z,4.70
2023-01-22T15:03:59.023Z,4.65
2023-01-22T15:06:59.962Z,4.66
2023-01-22T15:09:32.313Z,4.58
2023-01-22T15:12:04.986Z,4.63
2023-01-22T15:14:37.069Z,4.68
2023-01-22T15:17:09.096Z,4.62
2023-01-22T15:20:01.193Z,4.65
2023-01-22T15:22:33.283Z,4.66
2023-01-22T15:25:06.216Z,4.73
2023-01-22T15:27:38.659Z,4.74
2023-01-22T15:30:12.825Z,4.76
2023-01-22T15:32:44.934Z,4.81
2023-01-22T15:35:17.251Z,4.78
2023-01-22T15:37:49.388Z,4.84
2023-01-22T15:40:21.978Z,4.79
2023-01-22T15:42:54.397Z,4.75
2023-01-22T15:45:59.552Z,4.78
2023-01-22T15:48:31.607Z,4.80
2023-01-22T15:51:12.489Z,4.80
2023-01-22T15:53:56.236Z,4.77
2023-01-22T15:56:32.585Z,4.73
2023-01-22T15:59:05.802Z,4.69
2023-01-22T16:01:40.203Z,4.63
2023-01-22T16:04:12.265Z,4.61
2023-01-22T16:06:44.774Z,4.66
2023-01-22T16:09:21.777Z,4.65
2023-01-22T16:11:53.952Z,4.61
2023-01-22T16:14:28.132Z,4.61
2023-01-22T16:17:00.817Z,4.61
2023-01-22T16:19:59.523Z,4.58
2023-01-22T16:25:40.341Z,4.45
2023-01-22T16:28:12.374Z,4.48
2023-01-22T16:30:50.383Z,4.50
2023-01-22T16:33:29.636Z,4.52
2023-01-22T16:36:03.789Z,4.53
2023-01-22T16:38:37.007Z,4.53
2023-01-22T16:41:24.278Z,4.52
2023-01-22T16:44:12.826Z,4.50
2023-01-22T16:46:52.455Z,4.49
2023-01-22T16:49:35.040Z,4.52
2023-01-22T16:52:21.884Z,4.51
2023-01-22T16:54:55.068Z,4.45
2023-01-22T16:57:27.142Z,4.47
2023-01-22T16:59:59.389Z,4.46
2023-01-22T17:02:31.917Z,4.45
2023-01-22T17:05:06.761Z,4.45
2023-01-22T17:07:40.656Z,4.45
2023-01-22T17:10:13.144Z,4.47
2023-01-22T17:12:48.739Z,4.51
2023-01-22T17:15:22.615Z,4.53
2023-01-22T17:17:54.997Z,4.53
2023-01-22T17:20:27.255Z,4.56
2023-01-22T17:22:59.675Z,4.53
2023-01-22T17:25:31.757Z,4.58
2023-01-22T17:28:04.003Z,4.58
2023-01-22T17:30:36.269Z,4.62
2023-01-22T17:33:08.482Z,4.55
2023-01-22T17:35:42.110Z,4.56
2023-01-22T17:38:14.586Z,4.61
2023-01-22T17:40:46.606Z,4.64
2023-01-22T17:43:18.802Z,4.66
2023-01-22T17:45:51.490Z,4.66
2023-01-22T17:48:23.728Z,4.68
2023-01-22T17:51:02.325Z,4.69
2023-01-22T17:53:38.313Z,4.71
2023-01-22T17:56:24.304Z,4.73
2023-01-22T17:59:00.508Z,4.75
2023-01-22T18:01:35.224Z,4.69
2023-01-22T18:04:10.688Z,4.71
2023-01-22T18:06:43.979Z,4.75
2023-01-22T18:09:16.434Z,4.75
2023-01-22T18:11:48.874Z,4.77
2023-01-22T18:14:25.547Z,4.80
2023-01-22T18:16:57.828Z,4.82
2023-01-22T18:19:30.032Z,4.83
2023-01-22T18:22:02.196Z,4.85
2023-01-22T18:24:36.371Z,4.85
2023-01-22T18:27:08.430Z,4.78
2023-01-22T18:29:41.524Z,4.78
2023-01-22T18:32:13.621Z,4.81
2023-01-22T18:34:45.620Z,4.84
2023-01-22T18:37:17.635Z,4.84
2023-01-22T18:39:49.770Z,4.88
2023-01-22T18:42:21.863Z,4.88
2023-01-22T18:44:54.178Z,4.89
2023-01-22T18:47:26.258Z,4.89
2023-01-22T18:49:58.292Z,4.89
2023-01-22T18:52:30.414Z,4.90
2023-01-22T18:55:02.731Z,4.86
2023-01-22T18:57:37.077Z,4.85
2023-01-22T19:00:11.613Z,4.85
2023-01-22T19:02:43.882Z,4.86
2023-01-22T19:05:16.140Z,4.82
2023-01-22T19:07:48.227Z,4.83
2023-01-22T19:10:20.602Z,4.74
2023-01-22T19:12:52.603Z,4.77
2023-01-22T19:15:24.736Z,4.77
2023-01-22T19:17:56.839Z,4.80
2023-01-22T19:20:29.062Z,4.79
2023-01-22T19:23:01.223Z,4.78
2023-01-22T19:25:33.414Z,4.73
2023-01-22T19:28:07.782Z,4.70
2023-01-22T19:30:39.889Z,4.66
2023-01-22T19:33:12.031Z,4.66
2023-01-22T19:35:49.426Z,4.66
2023-01-22T19:38:22.169Z,4.63
2023-01-22T19:40:54.293Z,4.56
2023-01-22T19:43:26.423Z,4.55
2023-01-22T19:46:07.450Z,4.59
2023-01-22T19:48:40.973Z,4.59
2023-01-22T19:51:18.001Z,4.60
2023-01-22T19:53:50.401Z,4.61
2023-01-22T19:56:30.914Z,4.61
2023-01-22T19:59:17.054Z,4.67
2023-01-22T20:01:52.720Z,4.61
2023-01-22T20:04:33.655Z,4.64
2023-01-22T20:07:06.012Z,4.61
2023-01-22T20:09:47.403Z,4.63
2023-01-22T20:12:27.731Z,4.59
2023-01-22T20:14:59.939Z,4.58
2023-01-22T20:17:33.029Z,4.59
2023-01-22T20:20:11.077Z,4.59
2023-01-22T20:22:47.484Z,4.63
2023-01-22T20:25:21.921Z,4.65
2023-01-22T20:27:54.185Z,4.65
2023-01-22T20:30:26.953Z,4.68
2023-01-22T20:32:59.072Z,4.73
2023-01-22T20:35:32.290Z,4.73
2023-01-22T20:39:00.948Z,4.77
2023-01-22T20:41:34.542Z,4.79
2023-01-22T20:44:07.033Z,4.82
2023-01-22T20:46:41.490Z,4.85
2023-01-22T20:49:13.880Z,4.82
2023-01-22T20:51:46.281Z,4.81
2023-01-22T20:54:54.765Z,4.82
2023-01-22T20:57:34.084Z,4.80
2023-01-22T21:00:07.419Z,4.80
2023-01-22T21:02:39.576Z,4.80
2023-01-22T21:05:11.728Z,4.74
2023-01-22T21:07:43.741Z,4.74
2023-01-22T21:10:16.411Z,4.73
2023-01-22T21:12:48.710Z,4.74
2023-01-22T21:15:20.845Z,4.72
2023-01-22T21:17:54.796Z,4.72
2023-01-22T21:20:26.961Z,4.70
2023-01-22T21:23:01.611Z,4.68
2023-01-22T21:25:40.527Z,4.70
2023-01-22T21:28:15.848Z,4.69
2023-01-22T21:30:48.068Z,4.74
2023-01-22T21:33:20.137Z,4.76
2023-01-22T21:39:00.052Z,4.72
2023-01-22T21:41:34.168Z,4.73
2023-01-22T21:44:25.722Z,4.72
2023-01-22T21:46:57.875Z,4.69
2023-01-22T21:49:31.004Z,4.70
2023-01-22T21:55:57.505Z,4.79
2023-01-22T21:58:29.469Z,4.85
2023-01-22T22:01:24.083Z,4.85
2023-01-22T22:03:56.150Z,4.88
2023-01-22T22:06:32.944Z,4.91
2023-01-22T22:09:12.081Z,4.95
2023-01-22T22:11:45.398Z,4.92
2023-01-22T22:14:59.699Z,4.90
2023-01-22T22:17:31.865Z,4.91
2023-01-22T22:20:06.205Z,4.91
2023-01-22T22:22:38.353Z,4.89
2023-01-22T22:25:10.426Z,4.85
2023-01-22T22:27:45.185Z,4.91
2023-01-22T22:30:17.937Z,4.90
2023-01-22T22:32:50.315Z,4.89
2023-01-22T22:35:22.335Z,4.87
2023-01-22T22:38:01.723Z,4.86
2023-01-22T22:40:33.722Z,4.85
2023-01-22T22:43:05.978Z,4.87
2023-01-22T22:45:38.522Z,4.86
2023-01-22T22:48:10.573Z,4.85
2023-01-22T22:50:43.372Z,4.86
2023-01-22T22:53:31.003Z,4.81
2023-01-22T22:56:05.479Z,4.83
2023-01-22T22:58:38.387Z,4.78
2023-01-22T23:01:19.579Z,4.78
2023-01-22T23:03:53.639Z,4.77
2023-01-22T23:06:29.815Z,4.80
2023-01-22T23:09:04.536Z,4.81
2023-01-22T23:11:38.453Z,4.81
2023-01-22T23:14:14.603Z,4.81
2023-01-22T23:16:49.214Z,4.80
2023-01-22T23:19:25.688Z,4.78
2023-01-22T23:22:00.257Z,4.80
2023-01-22T23:24:32.751Z,4.81
2023-01-22T23:27:04.895Z,4.80
2023-01-22T23:29:37.024Z,4.80
2023-01-22T23:32:09.032Z,4.78
2023-01-22T23:34:41.415Z,4.78
2023-01-22T23:37:14.466Z,4.78
2023-01-22T23:42:33.014Z,4.76
2023-01-22T23:45:05.774Z,4.77
2023-01-22T23:47:37.906Z,4.76
2023-01-22T23:50:10.639Z,4.76
2023-01-22T23:52:43.909Z,4.74
2023-01-22T23:55:16.341Z,4.74
2023-01-22T23:57:48.299Z,4.72
